This is the latest recevied weather packets stored in our database for station/object W1BKW. If no packets are shown the sender has not sent any weather packets the latest 10 day(s).
| Time | Temp. | Humidity | Pressure | Rain* | Wind** | Luminosity | Snow |
|---|---|---|---|---|---|---|---|
| 1777939285 | 12.22° C | 88% | 1004.3 hPa | 0 mm | - | 0 W/m² | - |
| 1777938380 | 13.33° C | 76% | 1004.2 hPa | 0 mm | - | 1 W/m² | - |
| 1777937481 | 13.89° C | 76% | 1003.6 hPa | 0 mm | - | 5 W/m² | - |
| 1777936578 | 15.56° C | 67% | 1003.6 hPa | 0 mm | - | 13 W/m² | - |
| 1777935675 | 18.89° C | 53% | 1003.4 hPa | 0 mm | - | 27 W/m² | - |
| 1777934772 | 18.33° C | 49% | 1003.2 hPa | 0 mm | - | 40 W/m² | - |
| 1777933867 | 18.33° C | 49% | 1003.1 hPa | 0 mm | - | 78 W/m² | - |
| 1777932965 | 17.22° C | 54% | 1003.5 hPa | 0 mm | - | 109 W/m² | - |
| 1777932061 | 17.78° C | 50% | 1003.4 hPa | 0 mm | - | 52 W/m² | - |
| 1777931157 | 17.78° C | 52% | 1003.5 hPa | 0 mm | - | 69 W/m² | - |
| 1777930253 | 16.67° C | 55% | 1003.6 hPa | 0 mm | - | 247 W/m² | - |
| 1777929349 | 16.67° C | 55% | 1003.6 hPa | 0 mm | - | 223 W/m² | - |
| 1777928445 | 16.11° C | 56% | 1003.9 hPa | 0 mm | - | 107 W/m² | - |
| 1777927544 | 16.11° C | 55% | 1003.8 hPa | 0 mm | - | 110 W/m² | - |
| 1777926644 | 16.11° C | 56% | 1004 hPa | 0 mm | - | 90 W/m² | - |
| 1777925739 | 16.11° C | 55% | 1003.8 hPa | 0 mm | - | 302 W/m² | - |
| 1777924836 | 15.56° C | 57% | 1003.8 hPa | 0 mm | - | 462 W/m² | - |
| 1777923931 | 15.56° C | 59% | 1003.6 hPa | 0 mm | - | 358 W/m² | - |
| 1777923028 | 15° C | 59% | 1004 hPa | 0 mm | - | 330 W/m² | - |
| 1777922127 | 15° C | 63% | 1003.8 hPa | 0 mm | - | 397 W/m² | - |
| 1777921226 | 14.44° C | 64% | 1004 hPa | 0 mm | - | 190 W/m² | - |
| 1777920321 | 13.89° C | 66% | 1004.3 hPa | 0 mm | - | 163 W/m² | - |
| 1777919419 | 13.89° C | 66% | 1004.5 hPa | 0 mm | - | 161 W/m² | - |
| 1777918515 | 13.33° C | 69% | 1004.8 hPa | 0 mm | - | 356 W/m² | - |
| 1777917610 | 13.33° C | 65% | 1004.6 hPa | 0 mm | - | 358 W/m² | - |
* Rain latest hour (hover to see other rain measurements)
** Current wind speed in m/s (hover to see current wind gust speed)